Laura K. Moran — WDE3239 — position and weather

sailwx.info

Track history (hours):
 
Tides and Currents Weather Stations Pressure Air Temp Water Temp Dewpoint Dewpoint Depression Visibility Wind Speed Wind Dir Waves Ship Positions

Laura K. Moran

Owner: Moran Towing Corporation, New Canaan, CT. More information available from US FCC via Universal Licensing System and Coast Guard Vessel Documentation Center.

Last reported at 2018-Jan-23 00:00 UTC. Time now 2018-Jan-23 00:11 UTC.
Position N 32°05' W 081°04'.

Length 28 m; draft 4.2 m.

Type: Port tender. MMSI: 367336190.

Date/timePositionNaut miles runAvg speedWind from/ knotsBaromVisibWave heightAir tempDewpointWater temp
2018-Jan-23 00:00N 32°05' W 081°04'2 4.3
2018-Jan-22 23:30N 32°06' W 081°06'2 3.9
2018-Jan-22 23:00N 32°07' W 081°08'0 0.0
2018-Jan-22 22:30N 32°07' W 081°08'1 1.7
2018-Jan-22 22:00N 32°06' W 081°07'0 0.8
2018-Jan-22 21:30N 32°06' W 081°07'3 5.8
2018-Jan-22 21:00N 32°05' W 081°04'0 0.1
2018-Jan-22 20:30N 32°05' W 081°04'0 0.0
2018-Jan-22 20:00N 32°05' W 081°04'0 0.0
2018-Jan-22 19:30N 32°05' W 081°04'0 0.0
2018-Jan-22 19:00N 32°05' W 081°04'0 0.0
2018-Jan-22 18:30N 32°05' W 081°04'0 0.0
2018-Jan-22 17:59N 32°05' W 081°04'0 0.1
2018-Jan-22 17:30N 32°05' W 081°04'4 7.4
2018-Jan-22 17:00N 32°07' W 081°08'1 1.4
2018-Jan-22 16:30N 32°07' W 081°08'0 0.0
2018-Jan-22 16:00N 32°07' W 081°08'0 0.4
2018-Jan-22 15:30N 32°07' W 081°08'0 0.0
2018-Jan-22 15:00N 32°07' W 081°08'0 0.0
2018-Jan-22 14:29N 32°07' W 081°08'0 0.0
2018-Jan-22 14:00N 32°07' W 081°08'0 0.0
2018-Jan-22 13:30N 32°07' W 081°08'0 0.0
2018-Jan-22 13:00N 32°07' W 081°08'0 0.2
2018-Jan-22 12:30N 32°07' W 081°08'0 0.0
2018-Jan-22 11:59N 32°07' W 081°08'0 1.0
2018-Jan-22 11:30N 32°08' W 081°08'0 0.3
2018-Jan-22 11:00N 32°08' W 081°08'1 1.7
2018-Jan-22 10:30N 32°07' W 081°08'3 7.0
2018-Jan-22 10:00N 32°05' W 081°04'1 1.1
2018-Jan-22 09:29N 32°05' W 081°04'0 0.0
2018-Jan-22 09:00N 32°05' W 081°04'0 0.0
2018-Jan-22 08:29N 32°05' W 081°04'0 0.0
2018-Jan-22 08:00N 32°05' W 081°04'0 0.0
2018-Jan-22 07:30N 32°05' W 081°04'0 0.0
2018-Jan-22 07:00N 32°05' W 081°04'0 0.0
2018-Jan-22 06:30N 32°05' W 081°04'0 0.0
2018-Jan-22 06:00N 32°05' W 081°04'0 0.0
2018-Jan-22 05:28N 32°05' W 081°04'0 0.0
2018-Jan-22 05:00N 32°05' W 081°04'0 0.0
2018-Jan-22 04:30N 32°05' W 081°04'3 6.3
2018-Jan-22 04:00N 32°06' W 081°07'1 2.9
2018-Jan-22 03:30N 32°08' W 081°08'0 0.6
2018-Jan-22 02:58N 32°08' W 081°08'0 1.0
2018-Jan-22 02:30N 32°07' W 081°08'0 1.0
2018-Jan-22 02:00N 32°08' W 081°08'3 6.0
2018-Jan-22 01:30N 32°05' W 081°06'2 4.3
2018-Jan-22 01:00N 32°07' W 081°08'4 7.4
2018-Jan-22 00:30N 32°05' W 081°04'1 1.1
2018-Jan-22 00:00N 32°05' W 081°04'0 0.0
2018-Jan-21 23:28N 32°05' W 081°04'0 0.0
2018-Jan-21 23:00N 32°05' W 081°04'0 0.0
2018-Jan-21 22:30N 32°05' W 081°04'0 0.0
2018-Jan-21 22:00N 32°05' W 081°04'0 0.0
2018-Jan-21 21:30N 32°05' W 081°04'0 0.0
2018-Jan-21 21:00N 32°05' W 081°04'0 0.0
2018-Jan-21 20:30N 32°05' W 081°04'0 0.0
2018-Jan-21 20:00N 32°05' W 081°04'0 0.0
2018-Jan-21 19:29N 32°05' W 081°04'1 2.9
2018-Jan-21 19:00N 32°05' W 081°06'4 7.2
2018-Jan-21 18:30N 32°08' W 081°08'1 1.8
2018-Jan-21 18:00N 32°07' W 081°08'2 3.8
2018-Jan-21 17:29N 32°05' W 081°06'0 0.0
2018-Jan-21 17:00N 32°05' W 081°06'0 0.0
2018-Jan-21 16:30N 32°05' W 081°06'0 0.0
2018-Jan-21 16:00N 32°05' W 081°06'0 0.0
2018-Jan-21 15:28N 32°05' W 081°06'0 0.0
2018-Jan-21 15:00N 32°05' W 081°06'0 0.0
2018-Jan-21 14:30N 32°05' W 081°06'0 0.0
2018-Jan-21 14:00N 32°05' W 081°06'1 1.7
2018-Jan-21 13:30N 32°06' W 081°07'2 3.8
2018-Jan-21 13:00N 32°08' W 081°08'1 2.2
2018-Jan-21 12:30N 32°07' W 081°07'4 7.1
2018-Jan-21 12:00N 32°05' W 081°04'0 0.0
2018-Jan-21 11:30N 32°05' W 081°04'0 0.0
2018-Jan-21 11:00N 32°05' W 081°04'0 0.0
2018-Jan-21 10:30N 32°05' W 081°04'0 0.0
2018-Jan-21 10:00N 32°05' W 081°04'0 0.0
2018-Jan-21 09:30N 32°05' W 081°04'0 0.0
2018-Jan-21 09:00N 32°05' W 081°04'0 0.0
2018-Jan-21 08:30N 32°05' W 081°04'0 0.0
2018-Jan-21 08:00N 32°05' W 081°04'0 0.0
2018-Jan-21 07:30N 32°05' W 081°04'0 0.0
2018-Jan-21 07:00N 32°05' W 081°04'0 0.0
2018-Jan-21 06:30N 32°05' W 081°04'0 0.0
2018-Jan-21 06:00N 32°05' W 081°04'0 0.0
2018-Jan-21 05:30N 32°05' W 081°04'0 0.0
2018-Jan-21 05:00N 32°05' W 081°04'0 0.0
2018-Jan-21 04:30N 32°05' W 081°04'0 0.0
2018-Jan-21 03:58N 32°05' W 081°04'0 0.0
2018-Jan-21 03:30N 32°05' W 081°04'0 0.0
2018-Jan-21 03:00N 32°05' W 081°04'0 0.0
2018-Jan-21 02:30N 32°05' W 081°04'0 0.0
2018-Jan-21 02:00N 32°05' W 081°04'3 6.6
2018-Jan-21 01:30N 32°06' W 081°07'1 3.0
2018-Jan-21 01:00N 32°08' W 081°08'1 2.5
2018-Jan-21 00:30N 32°07' W 081°07'1 3.0
2018-Jan-21 00:00N 32°05' W 081°06'0 0.0
2018-Jan-20 23:30N 32°05' W 081°06'0 0.3
2018-Jan-20 23:00N 32°06' W 081°06'3 5.3
2018-Jan-20 22:30N 32°08' W 081°08'0 0.9
2018-Jan-20 22:00N 32°08' W 081°09'0 0.0
2018-Jan-20 21:30N 32°08' W 081°09'0 0.0
2018-Jan-20 21:00N 32°08' W 081°09'2 4.9
2018-Jan-20 20:30N 32°06' W 081°07'1 1.2
2018-Jan-20 20:00N 32°06' W 081°06'2 1.5
2018-Jan-20 18:32N 32°05' W 081°04'0 0.0
2018-Jan-20 18:30N 32°05' W 081°04'0 0.0
2018-Jan-20 18:01N 32°05' W 081°04'0 0.0
2018-Jan-20 17:31N 32°05' W 081°04'0 0.0
2018-Jan-20 17:00N 32°05' W 081°04'0 0.0
2018-Jan-20 16:30N 32°05' W 081°04'0 0.0
2018-Jan-20 16:01N 32°05' W 081°04'0 0.0
2018-Jan-20 15:30N 32°05' W 081°04'0 0.0
2018-Jan-20 15:00N 32°05' W 081°04'0 0.0
2018-Jan-20 14:31N 32°05' W 081°04'1 2.6
2018-Jan-20 14:00N 32°05' W 081°05'4 7.7
2018-Jan-20 13:30N 32°08' W 081°08'0 0.4
2018-Jan-20 13:00N 32°08' W 081°09'1 1.9
2018-Jan-20 12:30N 32°07' W 081°08'0 0.0
2018-Jan-20 12:00N 32°07' W 081°08'0 0.0
2018-Jan-20 11:30N 32°07' W 081°08'0 0.5
2018-Jan-20 11:00N 32°07' W 081°08'1 1.3
2018-Jan-20 10:30N 32°08' W 081°08'2 3.6
2018-Jan-20 10:00N 32°06' W 081°07'1 2.9
2018-Jan-20 09:30N 32°05' W 081°06'0 0.0
2018-Jan-20 09:00N 32°05' W 081°06'0 0.0
2018-Jan-20 08:30N 32°05' W 081°06'0 0.0
2018-Jan-20 08:00N 32°05' W 081°06'0 0.0
2018-Jan-20 07:30N 32°05' W 081°06'0 0.0
2018-Jan-20 07:00N 32°05' W 081°06'0 0.0
2018-Jan-20 06:30N 32°05' W 081°06'0 0.0
2018-Jan-20 06:00N 32°05' W 081°06'0 0.0
2018-Jan-20 05:30N 32°05' W 081°06'0 0.1
2018-Jan-20 05:00N 32°05' W 081°06'2 3.8
2018-Jan-20 04:30N 32°05' W 081°04'0 0.0
2018-Jan-20 04:00N 32°05' W 081°04'0 0.0
2018-Jan-20 03:30N 32°05' W 081°04'0 0.0
2018-Jan-20 03:00N 32°05' W 081°04'0 0.0
2018-Jan-20 02:30N 32°05' W 081°04'0 0.0
2018-Jan-20 02:00N 32°05' W 081°04'0 0.0
2018-Jan-20 01:30N 32°05' W 081°04'0 0.0
2018-Jan-20 01:01N 32°05' W 081°04'0 0.0
2018-Jan-20 00:31N 32°05' W 081°04'2 3.7
2018-Jan-20 00:01N 32°05' W 081°06'3 6.2
2018-Jan-19 23:31N 32°08' W 081°08'0 0.1
2018-Jan-19 23:00N 32°08' W 081°08'1 1.4
2018-Jan-19 22:31N 32°07' W 081°08'2 4.8
2018-Jan-19 22:01N 32°05' W 081°06'1 1.8
2018-Jan-19 21:31N 32°06' W 081°07'0 0.2
2018-Jan-19 21:01N 32°06' W 081°07'3 5.5
2018-Jan-19 20:31N 32°05' W 081°04'0 0.0
2018-Jan-19 20:00N 32°05' W 081°04'0 0.0
2018-Jan-19 19:31N 32°05' W 081°04'0 0.0
2018-Jan-19 19:00N 32°05' W 081°04'0 0.0
2018-Jan-19 18:30N 32°05' W 081°04'0 0.0
2018-Jan-19 18:00N 32°05' W 081°04'0 0.0
2018-Jan-19 17:31N 32°05' W 081°04'0 0.0
2018-Jan-19 17:00N 32°05' W 081°04'2 4.0
2018-Jan-19 16:31N 32°05' W 081°06'2 4.4
2018-Jan-19 16:00N 32°07' W 081°08'2 3.2
2018-Jan-19 15:31N 32°06' W 081°07'1 1.3
2018-Jan-19 15:01N 32°05' W 081°06'0 0.0
2018-Jan-19 14:31N 32°05' W 081°06'0 0.5
2018-Jan-19 14:00N 32°05' W 081°06'4 7.1
2018-Jan-19 13:30N 32°08' W 081°08'0 0.1
2018-Jan-19 05:59N 32°08' W 081°08'0 0.0
2018-Jan-19 05:31N 32°08' W 081°08'0 0.2
2018-Jan-19 05:01N 32°08' W 081°08'0 0.7
2018-Jan-19 04:31N 32°08' W 081°08'1 2.3
2018-Jan-19 04:01N 32°07' W 081°08'4 7.2
2018-Jan-19 03:31N 32°05' W 081°04'0 0.8
2018-Jan-19 03:01N 32°05' W 081°04'0 0.0
2018-Jan-19 02:31N 32°05' W 081°04'0 0.0
2018-Jan-19 02:00N 32°05' W 081°04'0 0.0
2018-Jan-19 01:30N 32°05' W 081°04'0 0.0
2018-Jan-19 00:58N 32°05' W 081°04'0 0.0
2018-Jan-19 00:31N 32°05' W 081°04'0 0.0
2018-Jan-19 00:00N 32°05' W 081°04'0 0.0
2018-Jan-18 23:30N 32°05' W 081°04'0 0.0
2018-Jan-18 23:00N 32°05' W 081°04'0 0.0
2018-Jan-18 22:30N 32°05' W 081°04'0 0.0
2018-Jan-18 21:14N 32°05' W 081°04'0 0.0
2018-Jan-18 21:00N 32°05' W 081°04'0 0.0
2018-Jan-18 20:30N 32°05' W 081°04'0 0.0
2018-Jan-18 20:00N 32°05' W 081°04'0 0.0
2018-Jan-18 19:30N 32°05' W 081°04'0 0.0
2018-Jan-18 19:00N 32°05' W 081°04'0 0.0
2018-Jan-18 18:30N 32°05' W 081°04'0 0.0
2018-Jan-18 18:00N 32°05' W 081°04'0 0.0
2018-Jan-18 17:30N 32°05' W 081°04'0 0.0
2018-Jan-18 17:00N 32°05' W 081°04'1 2.7
2018-Jan-18 16:31N 32°05' W 081°05'4 7.3
2018-Jan-18 16:00N 32°08' W 081°08'0 0.2
2018-Jan-18 15:30N 32°08' W 081°08'1 1.7
2018-Jan-18 15:00N 32°07' W 081°08'2 4.1
2018-Jan-18 14:30N 32°06' W 081°06'1 2.5
2018-Jan-18 14:00N 32°06' W 081°07'1 2.7
2018-Jan-18 13:31N 32°08' W 081°08'1 2.9
2018-Jan-18 13:00N 32°06' W 081°07'3 6.3
2018-Jan-18 12:30N 32°05' W 081°04'0 0.0
2018-Jan-18 12:00N 32°05' W 081°04'0 0.0
2018-Jan-18 11:30N 32°05' W 081°04'0 0.0
2018-Jan-18 11:01N 32°05' W 081°04'0 0.0
2018-Jan-18 10:31N 32°05' W 081°04'0 0.0
2018-Jan-18 10:00N 32°05' W 081°04'0 0.0
2018-Jan-18 09:31N 32°05' W 081°04'0 0.0
2018-Jan-18 09:01N 32°05' W 081°04'0 0.0
2018-Jan-18 08:31N 32°05' W 081°04'0 0.0
2018-Jan-18 08:00N 32°05' W 081°04'0 0.0
2018-Jan-18 07:31N 32°05' W 081°04'0 0.0
2018-Jan-18 07:01N 32°05' W 081°04'0 0.0
2018-Jan-18 06:31N 32°05' W 081°04'0 0.0
2018-Jan-18 06:00N 32°05' W 081°04'0 0.0
2018-Jan-18 05:31N 32°05' W 081°04'0 0.0
2018-Jan-18 05:01N 32°05' W 081°04'0 0.0
2018-Jan-18 04:31N 32°05' W 081°04'0 0.0
2018-Jan-18 03:05N 32°05' W 081°04'0 0.0
2018-Jan-18 03:01N 32°05' W 081°04'0 0.0
2018-Jan-18 02:30N 32°05' W 081°04'0 0.0
2018-Jan-18 02:01N 32°05' W 081°04'0 0.0
2018-Jan-18 01:31N 32°05' W 081°04'0 0.0
2018-Jan-18 01:01N 32°05' W 081°04'0 0.0
2018-Jan-17 23:59N 32°05' W 081°04'0 0.0
2018-Jan-17 23:54N 32°05' W 081°04'  
Track history (hours):
 
Tides and Currents Weather Stations Pressure Air Temp Water Temp Dewpoint Dewpoint Depression Visibility Wind Speed Wind Dir Waves Ship Positions

Laura K. Moran

Owner: Moran Towing Corporation, New Canaan, CT. More information available from US FCC via Universal Licensing System and Coast Guard Vessel Documentation Center.

Last reported at 2018-Jan-23 00:00 UTC. Time now 2018-Jan-23 00:11 UTC.
Position N 32°05' W 081°04'.

Length 28 m; draft 4.2 m.

Type: Port tender. MMSI: 367336190.

Date/timePositionNaut miles runAvg speedWind from/ knotsBaromVisibWave heightAir tempDewpointWater temp
2018-Jan-23 00:00N 32°05' W 081°04'2 4.3
2018-Jan-22 23:30N 32°06' W 081°06'2 3.9
2018-Jan-22 23:00N 32°07' W 081°08'0 0.0
2018-Jan-22 22:30N 32°07' W 081°08'1 1.7
2018-Jan-22 22:00N 32°06' W 081°07'0 0.8
2018-Jan-22 21:30N 32°06' W 081°07'3 5.8
2018-Jan-22 21:00N 32°05' W 081°04'0 0.1
2018-Jan-22 20:30N 32°05' W 081°04'0 0.0
2018-Jan-22 20:00N 32°05' W 081°04'0 0.0
2018-Jan-22 19:30N 32°05' W 081°04'0 0.0
2018-Jan-22 19:00N 32°05' W 081°04'0 0.0
2018-Jan-22 18:30N 32°05' W 081°04'0 0.0
2018-Jan-22 17:59N 32°05' W 081°04'0 0.1
2018-Jan-22 17:30N 32°05' W 081°04'4 7.4
2018-Jan-22 17:00N 32°07' W 081°08'1 1.4
2018-Jan-22 16:30N 32°07' W 081°08'0 0.0
2018-Jan-22 16:00N 32°07' W 081°08'0 0.4
2018-Jan-22 15:30N 32°07' W 081°08'0 0.0
2018-Jan-22 15:00N 32°07' W 081°08'0 0.0
2018-Jan-22 14:29N 32°07' W 081°08'0 0.0
2018-Jan-22 14:00N 32°07' W 081°08'0 0.0
2018-Jan-22 13:30N 32°07' W 081°08'0 0.0
2018-Jan-22 13:00N 32°07' W 081°08'0 0.2
2018-Jan-22 12:30N 32°07' W 081°08'0 0.0
2018-Jan-22 11:59N 32°07' W 081°08'0 1.0
2018-Jan-22 11:30N 32°08' W 081°08'0 0.3
2018-Jan-22 11:00N 32°08' W 081°08'1 1.7
2018-Jan-22 10:30N 32°07' W 081°08'3 7.0
2018-Jan-22 10:00N 32°05' W 081°04'1 1.1
2018-Jan-22 09:29N 32°05' W 081°04'0 0.0
2018-Jan-22 09:00N 32°05' W 081°04'0 0.0
2018-Jan-22 08:29N 32°05' W 081°04'0 0.0
2018-Jan-22 08:00N 32°05' W 081°04'0 0.0
2018-Jan-22 07:30N 32°05' W 081°04'0 0.0
2018-Jan-22 07:00N 32°05' W 081°04'0 0.0
2018-Jan-22 06:30N 32°05' W 081°04'0 0.0
2018-Jan-22 06:00N 32°05' W 081°04'0 0.0
2018-Jan-22 05:28N 32°05' W 081°04'0 0.0
2018-Jan-22 05:00N 32°05' W 081°04'0 0.0
2018-Jan-22 04:30N 32°05' W 081°04'3 6.3
2018-Jan-22 04:00N 32°06' W 081°07'1 2.9
2018-Jan-22 03:30N 32°08' W 081°08'0 0.6
2018-Jan-22 02:58N 32°08' W 081°08'0 1.0
2018-Jan-22 02:30N 32°07' W 081°08'0 1.0
2018-Jan-22 02:00N 32°08' W 081°08'3 6.0
2018-Jan-22 01:30N 32°05' W 081°06'2 4.3
2018-Jan-22 01:00N 32°07' W 081°08'4 7.4
2018-Jan-22 00:30N 32°05' W 081°04'1 1.1
2018-Jan-22 00:00N 32°05' W 081°04'0 0.0
2018-Jan-21 23:28N 32°05' W 081°04'0 0.0
2018-Jan-21 23:00N 32°05' W 081°04'0 0.0
2018-Jan-21 22:30N 32°05' W 081°04'0 0.0
2018-Jan-21 22:00N 32°05' W 081°04'0 0.0
2018-Jan-21 21:30N 32°05' W 081°04'0 0.0
2018-Jan-21 21:00N 32°05' W 081°04'0 0.0
2018-Jan-21 20:30N 32°05' W 081°04'0 0.0
2018-Jan-21 20:00N 32°05' W 081°04'0 0.0
2018-Jan-21 19:29N 32°05' W 081°04'1 2.9
2018-Jan-21 19:00N 32°05' W 081°06'4 7.2
2018-Jan-21 18:30N 32°08' W 081°08'1 1.8
2018-Jan-21 18:00N 32°07' W 081°08'2 3.8
2018-Jan-21 17:29N 32°05' W 081°06'0 0.0
2018-Jan-21 17:00N 32°05' W 081°06'0 0.0
2018-Jan-21 16:30N 32°05' W 081°06'0 0.0
2018-Jan-21 16:00N 32°05' W 081°06'0 0.0
2018-Jan-21 15:28N 32°05' W 081°06'0 0.0
2018-Jan-21 15:00N 32°05' W 081°06'0 0.0
2018-Jan-21 14:30N 32°05' W 081°06'0 0.0
2018-Jan-21 14:00N 32°05' W 081°06'1 1.7
2018-Jan-21 13:30N 32°06' W 081°07'2 3.8
2018-Jan-21 13:00N 32°08' W 081°08'1 2.2
2018-Jan-21 12:30N 32°07' W 081°07'4 7.1
2018-Jan-21 12:00N 32°05' W 081°04'0 0.0
2018-Jan-21 11:30N 32°05' W 081°04'0 0.0
2018-Jan-21 11:00N 32°05' W 081°04'0 0.0
2018-Jan-21 10:30N 32°05' W 081°04'0 0.0
2018-Jan-21 10:00N 32°05' W 081°04'0 0.0
2018-Jan-21 09:30N 32°05' W 081°04'0 0.0
2018-Jan-21 09:00N 32°05' W 081°04'0 0.0
2018-Jan-21 08:30N 32°05' W 081°04'0 0.0
2018-Jan-21 08:00N 32°05' W 081°04'0 0.0
2018-Jan-21 07:30N 32°05' W 081°04'0 0.0
2018-Jan-21 07:00N 32°05' W 081°04'0 0.0
2018-Jan-21 06:30N 32°05' W 081°04'0 0.0
2018-Jan-21 06:00N 32°05' W 081°04'0 0.0
2018-Jan-21 05:30N 32°05' W 081°04'0 0.0
2018-Jan-21 05:00N 32°05' W 081°04'0 0.0
2018-Jan-21 04:30N 32°05' W 081°04'0 0.0
2018-Jan-21 03:58N 32°05' W 081°04'0 0.0
2018-Jan-21 03:30N 32°05' W 081°04'0 0.0
2018-Jan-21 03:00N 32°05' W 081°04'0 0.0
2018-Jan-21 02:30N 32°05' W 081°04'0 0.0
2018-Jan-21 02:00N 32°05' W 081°04'3 6.6
2018-Jan-21 01:30N 32°06' W 081°07'1 3.0
2018-Jan-21 01:00N 32°08' W 081°08'1 2.5
2018-Jan-21 00:30N 32°07' W 081°07'1 3.0
2018-Jan-21 00:00N 32°05' W 081°06'0 0.0
2018-Jan-20 23:30N 32°05' W 081°06'0 0.3
2018-Jan-20 23:00N 32°06' W 081°06'3 5.3
2018-Jan-20 22:30N 32°08' W 081°08'0 0.9
2018-Jan-20 22:00N 32°08' W 081°09'0 0.0
2018-Jan-20 21:30N 32°08' W 081°09'0 0.0
2018-Jan-20 21:00N 32°08' W 081°09'2 4.9
2018-Jan-20 20:30N 32°06' W 081°07'1 1.2
2018-Jan-20 20:00N 32°06' W 081°06'2 1.5
2018-Jan-20 18:32N 32°05' W 081°04'0 0.0
2018-Jan-20 18:30N 32°05' W 081°04'0 0.0
2018-Jan-20 18:01N 32°05' W 081°04'0 0.0
2018-Jan-20 17:31N 32°05' W 081°04'0 0.0
2018-Jan-20 17:00N 32°05' W 081°04'0 0.0
2018-Jan-20 16:30N 32°05' W 081°04'0 0.0
2018-Jan-20 16:01N 32°05' W 081°04'0 0.0
2018-Jan-20 15:30N 32°05' W 081°04'0 0.0
2018-Jan-20 15:00N 32°05' W 081°04'0 0.0
2018-Jan-20 14:31N 32°05' W 081°04'1 2.6
2018-Jan-20 14:00N 32°05' W 081°05'4 7.7
2018-Jan-20 13:30N 32°08' W 081°08'0 0.4
2018-Jan-20 13:00N 32°08' W 081°09'1 1.9
2018-Jan-20 12:30N 32°07' W 081°08'0 0.0
2018-Jan-20 12:00N 32°07' W 081°08'0 0.0
2018-Jan-20 11:30N 32°07' W 081°08'0 0.5
2018-Jan-20 11:00N 32°07' W 081°08'1 1.3
2018-Jan-20 10:30N 32°08' W 081°08'2 3.6
2018-Jan-20 10:00N 32°06' W 081°07'1 2.9
2018-Jan-20 09:30N 32°05' W 081°06'0 0.0
2018-Jan-20 09:00N 32°05' W 081°06'0 0.0
2018-Jan-20 08:30N 32°05' W 081°06'0 0.0
2018-Jan-20 08:00N 32°05' W 081°06'0 0.0
2018-Jan-20 07:30N 32°05' W 081°06'0 0.0
2018-Jan-20 07:00N 32°05' W 081°06'0 0.0
2018-Jan-20 06:30N 32°05' W 081°06'0 0.0
2018-Jan-20 06:00N 32°05' W 081°06'0 0.0
2018-Jan-20 05:30N 32°05' W 081°06'0 0.1
2018-Jan-20 05:00N 32°05' W 081°06'2 3.8
2018-Jan-20 04:30N 32°05' W 081°04'0 0.0
2018-Jan-20 04:00N 32°05' W 081°04'0 0.0
2018-Jan-20 03:30N 32°05' W 081°04'0 0.0
2018-Jan-20 03:00N 32°05' W 081°04'0 0.0
2018-Jan-20 02:30N 32°05' W 081°04'0 0.0
2018-Jan-20 02:00N 32°05' W 081°04'0 0.0
2018-Jan-20 01:30N 32°05' W 081°04'0 0.0
2018-Jan-20 01:01N 32°05' W 081°04'0 0.0
2018-Jan-20 00:31N 32°05' W 081°04'2 3.7
2018-Jan-20 00:01N 32°05' W 081°06'3 6.2
2018-Jan-19 23:31N 32°08' W 081°08'0 0.1
2018-Jan-19 23:00N 32°08' W 081°08'1 1.4
2018-Jan-19 22:31N 32°07' W 081°08'2 4.8
2018-Jan-19 22:01N 32°05' W 081°06'1 1.8
2018-Jan-19 21:31N 32°06' W 081°07'0 0.2
2018-Jan-19 21:01N 32°06' W 081°07'3 5.5
2018-Jan-19 20:31N 32°05' W 081°04'0 0.0
2018-Jan-19 20:00N 32°05' W 081°04'0 0.0
2018-Jan-19 19:31N 32°05' W 081°04'0 0.0
2018-Jan-19 19:00N 32°05' W 081°04'0 0.0
2018-Jan-19 18:30N 32°05' W 081°04'0 0.0
2018-Jan-19 18:00N 32°05' W 081°04'0 0.0
2018-Jan-19 17:31N 32°05' W 081°04'0 0.0
2018-Jan-19 17:00N 32°05' W 081°04'2 4.0
2018-Jan-19 16:31N 32°05' W 081°06'2 4.4
2018-Jan-19 16:00N 32°07' W 081°08'2 3.2
2018-Jan-19 15:31N 32°06' W 081°07'1 1.3
2018-Jan-19 15:01N 32°05' W 081°06'0 0.0
2018-Jan-19 14:31N 32°05' W 081°06'0 0.5
2018-Jan-19 14:00N 32°05' W 081°06'4 7.1
2018-Jan-19 13:30N 32°08' W 081°08'0 0.1
2018-Jan-19 05:59N 32°08' W 081°08'0 0.0
2018-Jan-19 05:31N 32°08' W 081°08'0 0.2
2018-Jan-19 05:01N 32°08' W 081°08'0 0.7
2018-Jan-19 04:31N 32°08' W 081°08'1 2.3
2018-Jan-19 04:01N 32°07' W 081°08'4 7.2
2018-Jan-19 03:31N 32°05' W 081°04'0 0.8
2018-Jan-19 03:01N 32°05' W 081°04'0 0.0
2018-Jan-19 02:31N 32°05' W 081°04'0 0.0
2018-Jan-19 02:00N 32°05' W 081°04'0 0.0
2018-Jan-19 01:30N 32°05' W 081°04'0 0.0
2018-Jan-19 00:58N 32°05' W 081°04'0 0.0
2018-Jan-19 00:31N 32°05' W 081°04'0 0.0
2018-Jan-19 00:00N 32°05' W 081°04'0 0.0
2018-Jan-18 23:30N 32°05' W 081°04'0 0.0
2018-Jan-18 23:00N 32°05' W 081°04'0 0.0
2018-Jan-18 22:30N 32°05' W 081°04'0 0.0
2018-Jan-18 21:14N 32°05' W 081°04'0 0.0
2018-Jan-18 21:00N 32°05' W 081°04'0 0.0
2018-Jan-18 20:30N 32°05' W 081°04'0 0.0
2018-Jan-18 20:00N 32°05' W 081°04'0 0.0
2018-Jan-18 19:30N 32°05' W 081°04'0 0.0
2018-Jan-18 19:00N 32°05' W 081°04'0 0.0
2018-Jan-18 18:30N 32°05' W 081°04'0 0.0
2018-Jan-18 18:00N 32°05' W 081°04'0 0.0
2018-Jan-18 17:30N 32°05' W 081°04'0 0.0
2018-Jan-18 17:00N 32°05' W 081°04'1 2.7
2018-Jan-18 16:31N 32°05' W 081°05'4 7.3
2018-Jan-18 16:00N 32°08' W 081°08'0 0.2
2018-Jan-18 15:30N 32°08' W 081°08'1 1.7
2018-Jan-18 15:00N 32°07' W 081°08'2 4.1
2018-Jan-18 14:30N 32°06' W 081°06'1 2.5
2018-Jan-18 14:00N 32°06' W 081°07'1 2.7
2018-Jan-18 13:31N 32°08' W 081°08'1 2.9
2018-Jan-18 13:00N 32°06' W 081°07'3 6.3
2018-Jan-18 12:30N 32°05' W 081°04'0 0.0
2018-Jan-18 12:00N 32°05' W 081°04'0 0.0
2018-Jan-18 11:30N 32°05' W 081°04'0 0.0
2018-Jan-18 11:01N 32°05' W 081°04'0 0.0
2018-Jan-18 10:31N 32°05' W 081°04'0 0.0
2018-Jan-18 10:00N 32°05' W 081°04'0 0.0
2018-Jan-18 09:31N 32°05' W 081°04'0 0.0
2018-Jan-18 09:01N 32°05' W 081°04'0 0.0
2018-Jan-18 08:31N 32°05' W 081°04'0 0.0
2018-Jan-18 08:00N 32°05' W 081°04'0 0.0
2018-Jan-18 07:31N 32°05' W 081°04'0 0.0
2018-Jan-18 07:01N 32°05' W 081°04'0 0.0
2018-Jan-18 06:31N 32°05' W 081°04'0 0.0
2018-Jan-18 06:00N 32°05' W 081°04'0 0.0
2018-Jan-18 05:31N 32°05' W 081°04'0 0.0
2018-Jan-18 05:01N 32°05' W 081°04'0 0.0
2018-Jan-18 04:31N 32°05' W 081°04'0 0.0
2018-Jan-18 03:05N 32°05' W 081°04'0 0.0
2018-Jan-18 03:01N 32°05' W 081°04'0 0.0
2018-Jan-18 02:30N 32°05' W 081°04'0 0.0
2018-Jan-18 02:01N 32°05' W 081°04'0 0.0
2018-Jan-18 01:31N 32°05' W 081°04'0 0.0
2018-Jan-18 01:01N 32°05' W 081°04'0 0.0
2018-Jan-17 23:59N 32°05' W 081°04'0 0.0
2018-Jan-17 23:54N 32°05' W 081°04'  

Dump ship's entire track history